Ariadna — ZGBE5 — position and weather

sailwx.info

Track history (hours):
 
Tides and Currents Weather Stations Pressure Air Temp Water Temp Dewpoint Dewpoint Depression Visibility Wind Speed Wind Dir Waves Ship Positions

Ariadna

Last reported at 2014-Sep-14 13:04 UTC. Time now 2014-Sep-16 19:33 UTC.
Position N 43°43' E 007°25'.

Length 47 m; draft 3.1 m.

Type: Pleasure craft. MMSI: 319026100.

Date/timePositionNaut miles runAvg speedWind from/ knotsBaromVisibWave heightAir tempDewpointWater temp
2014-Sep-14 13:04N 43°43' E 007°25'0 0.0
2014-Sep-14 11:10N 43°43' E 007°25'0 0.0
2014-Sep-14 10:10N 43°43' E 007°25'0 0.0
2014-Sep-14 08:28N 43°43' E 007°25'0 0.0
2014-Sep-14 07:28N 43°43' E 007°25'0 0.0
2014-Sep-14 06:16N 43°43' E 007°25'0 0.0
2014-Sep-14 05:28N 43°43' E 007°25'0 0.0
2014-Sep-14 04:16N 43°43' E 007°25'0 0.0
2014-Sep-14 03:04N 43°43' E 007°25'0 0.0
2014-Sep-14 02:16N 43°43' E 007°25'0 0.0
2014-Sep-13 16:16N 43°43' E 007°25'0 0.0
2014-Sep-13 14:22N 43°43' E 007°25'0 0.0
2014-Sep-13 05:28N 43°43' E 007°25'0 0.0
2014-Sep-13 02:04N 43°43' E 007°25'0 0.0
2014-Sep-13 01:28N 43°43' E 007°25'0 0.0
2014-Sep-13 00:22N 43°43' E 007°25'0 0.0
2014-Sep-12 23:28N 43°43' E 007°25'0 0.0
2014-Sep-12 22:28N 43°43' E 007°25'0 0.0
2014-Sep-12 21:16N 43°43' E 007°25'0 0.0
2014-Sep-12 16:28N 43°43' E 007°25'0 0.0
2014-Sep-11 01:16N 43°43' E 007°25'0 0.0
2014-Sep-10 20:28N 43°43' E 007°25'0 0.0
2014-Sep-10 18:28N 43°43' E 007°25'0 0.0
2014-Sep-10 16:16N 43°43' E 007°25'0 0.0
2014-Sep-10 15:28N 43°43' E 007°25'0 0.0
2014-Sep-10 14:28N 43°43' E 007°25'  
2014-Sep-07 18:04N 43°43' E 007°25'0 0.8
2014-Sep-07 17:31N 43°43' E 007°25'1 1.1
2014-Sep-07 16:25N 43°43' E 007°23'0 0.0
2014-Sep-07 15:24N 43°43' E 007°23'0 0.1
2014-Sep-07 14:33N 43°43' E 007°23'0 0.1
2014-Sep-07 13:33N 43°43' E 007°23'2 1.5
2014-Sep-07 12:30N 43°43' E 007°25'0 0.0
2014-Sep-07 11:30N 43°43' E 007°25'0 0.0
2014-Sep-07 10:28N 43°44' E 007°25'0 0.0
2014-Sep-07 01:14N 43°43' E 007°25'3 4.6
2014-Sep-07 00:33N 43°41' E 007°23'1111.2
2014-Sep-06 23:33N 43°32' E 007°14'1111.1
2014-Sep-06 22:33N 43°25' E 007°01'1111.1
2014-Sep-06 21:34N 43°20' E 006°48'10 9.6
2014-Sep-06 20:34N 43°16' E 006°36'0 0.0
2014-Sep-06 19:29N 43°16' E 006°36'0 0.0
2014-Sep-06 18:11N 43°16' E 006°36'0 0.0
2014-Sep-06 17:17N 43°16' E 006°36'0 0.1
2014-Sep-06 16:33N 43°16' E 006°36'2 0.0
2014-Sep-04 18:13N 43°16' E 006°38'4 5.8
2014-Sep-04 17:33N 43°15' E 006°43'3 2.4
2014-Sep-04 16:22N 43°14' E 006°40'0 0.0
2014-Sep-04 15:28N 43°14' E 006°40'0 0.0
2014-Sep-04 14:10N 43°14' E 006°40'0 0.0
2014-Sep-04 13:31N 43°14' E 006°40'  
Track history (hours):
 
Tides and Currents Weather Stations Pressure Air Temp Water Temp Dewpoint Dewpoint Depression Visibility Wind Speed Wind Dir Waves Ship Positions

Ariadna

Last reported at 2014-Sep-14 13:04 UTC. Time now 2014-Sep-16 19:33 UTC.
Position N 43°43' E 007°25'.

Length 47 m; draft 3.1 m.

Type: Pleasure craft. MMSI: 319026100.

Date/timePositionNaut miles runAvg speedWind from/ knotsBaromVisibWave heightAir tempDewpointWater temp
2014-Sep-14 13:04N 43°43' E 007°25'0 0.0
2014-Sep-14 11:10N 43°43' E 007°25'0 0.0
2014-Sep-14 10:10N 43°43' E 007°25'0 0.0
2014-Sep-14 08:28N 43°43' E 007°25'0 0.0
2014-Sep-14 07:28N 43°43' E 007°25'0 0.0
2014-Sep-14 06:16N 43°43' E 007°25'0 0.0
2014-Sep-14 05:28N 43°43' E 007°25'0 0.0
2014-Sep-14 04:16N 43°43' E 007°25'0 0.0
2014-Sep-14 03:04N 43°43' E 007°25'0 0.0
2014-Sep-14 02:16N 43°43' E 007°25'0 0.0
2014-Sep-13 16:16N 43°43' E 007°25'0 0.0
2014-Sep-13 14:22N 43°43' E 007°25'0 0.0
2014-Sep-13 05:28N 43°43' E 007°25'0 0.0
2014-Sep-13 02:04N 43°43' E 007°25'0 0.0
2014-Sep-13 01:28N 43°43' E 007°25'0 0.0
2014-Sep-13 00:22N 43°43' E 007°25'0 0.0
2014-Sep-12 23:28N 43°43' E 007°25'0 0.0
2014-Sep-12 22:28N 43°43' E 007°25'0 0.0
2014-Sep-12 21:16N 43°43' E 007°25'0 0.0
2014-Sep-12 16:28N 43°43' E 007°25'0 0.0
2014-Sep-11 01:16N 43°43' E 007°25'0 0.0
2014-Sep-10 20:28N 43°43' E 007°25'0 0.0
2014-Sep-10 18:28N 43°43' E 007°25'0 0.0
2014-Sep-10 16:16N 43°43' E 007°25'0 0.0
2014-Sep-10 15:28N 43°43' E 007°25'0 0.0
2014-Sep-10 14:28N 43°43' E 007°25'  
2014-Sep-07 18:04N 43°43' E 007°25'0 0.8
2014-Sep-07 17:31N 43°43' E 007°25'1 1.1
2014-Sep-07 16:25N 43°43' E 007°23'0 0.0
2014-Sep-07 15:24N 43°43' E 007°23'0 0.1
2014-Sep-07 14:33N 43°43' E 007°23'0 0.1
2014-Sep-07 13:33N 43°43' E 007°23'2 1.5
2014-Sep-07 12:30N 43°43' E 007°25'0 0.0
2014-Sep-07 11:30N 43°43' E 007°25'0 0.0
2014-Sep-07 10:28N 43°44' E 007°25'0 0.0
2014-Sep-07 01:14N 43°43' E 007°25'3 4.6
2014-Sep-07 00:33N 43°41' E 007°23'1111.2
2014-Sep-06 23:33N 43°32' E 007°14'1111.1
2014-Sep-06 22:33N 43°25' E 007°01'1111.1
2014-Sep-06 21:34N 43°20' E 006°48'10 9.6
2014-Sep-06 20:34N 43°16' E 006°36'0 0.0
2014-Sep-06 19:29N 43°16' E 006°36'0 0.0
2014-Sep-06 18:11N 43°16' E 006°36'0 0.0
2014-Sep-06 17:17N 43°16' E 006°36'0 0.1
2014-Sep-06 16:33N 43°16' E 006°36'2 0.0
2014-Sep-04 18:13N 43°16' E 006°38'4 5.8
2014-Sep-04 17:33N 43°15' E 006°43'3 2.4
2014-Sep-04 16:22N 43°14' E 006°40'0 0.0
2014-Sep-04 15:28N 43°14' E 006°40'0 0.0
2014-Sep-04 14:10N 43°14' E 006°40'0 0.0
2014-Sep-04 13:31N 43°14' E 006°40'  

Dump ship's entire track history